sensor_id;sensor_type;location;lat;lon;timestamp;pressure;altitude;pressure_sealevel;temperature;humidity
74228;BME280;62587;52.352;5.006;2023-03-14T00:02:16;98696.63;;;20.54;42.15
74228;BME280;62587;52.352;5.006;2023-03-14T00:04:41;98708.09;;;20.54;41.95
74228;BME280;62587;52.352;5.006;2023-03-14T00:07:07;98711.78;;;20.53;41.69
74228;BME280;62587;52.352;5.006;2023-03-14T00:09:32;98709.13;;;20.53;41.78
74228;BME280;62587;52.352;5.006;2023-03-14T00:11:58;98713.75;;;20.51;41.94
74228;BME280;62587;52.352;5.006;2023-03-14T00:14:24;98699.78;;;20.49;41.92
74228;BME280;62587;52.352;5.006;2023-03-14T00:16:49;98708.59;;;20.50;41.99
74228;BME280;62587;52.352;5.006;2023-03-14T00:19:15;98708.44;;;20.51;41.75
74228;BME280;62587;52.352;5.006;2023-03-14T00:21:40;98698.78;;;20.50;42.15
74228;BME280;62587;52.352;5.006;2023-03-14T00:24:06;98697.13;;;20.49;41.97
74228;BME280;62587;52.352;5.006;2023-03-14T00:26:32;98704.78;;;20.52;41.45
74228;BME280;62587;52.352;5.006;2023-03-14T00:28:57;98694.47;;;20.49;41.64
74228;BME280;62587;52.352;5.006;2023-03-14T00:31:22;98704.28;;;20.49;41.85
74228;BME280;62587;52.352;5.006;2023-03-14T00:33:48;98700.13;;;20.46;41.89
74228;BME280;62587;52.352;5.006;2023-03-14T00:36:17;98700.13;;;20.46;41.79
74228;BME280;62587;52.352;5.006;2023-03-14T00:38:43;98690.28;;;20.47;41.79
74228;BME280;62587;52.352;5.006;2023-03-14T00:41:12;98694.97;;;20.53;41.55
74228;BME280;62587;52.352;5.006;2023-03-14T00:43:37;98695.16;;;20.51;41.51
74228;BME280;62587;52.352;5.006;2023-03-14T00:46:03;98686.34;;;20.51;41.53
74228;BME280;62587;52.352;5.006;2023-03-14T00:48:29;98691.47;;;20.52;41.82
74228;BME280;62587;52.352;5.006;2023-03-14T00:50:55;98693.66;;;20.49;41.45
74228;BME280;62587;52.352;5.006;2023-03-14T00:53:20;98691.00;;;20.49;41.69
74228;BME280;62587;52.352;5.006;2023-03-14T00:55:46;98698.47;;;20.53;41.44
74228;BME280;62587;52.352;5.006;2023-03-14T00:58:14;98696.63;;;20.54;41.68
74228;BME280;62587;52.352;5.006;2023-03-14T01:00:40;98706.47;;;20.53;41.38
74228;BME280;62587;52.352;5.006;2023-03-14T01:03:07;98691.47;;;20.52;41.58
74228;BME280;62587;52.352;5.006;2023-03-14T01:05:33;98693.16;;;20.53;41.72
74228;BME280;62587;52.352;5.006;2023-03-14T01:07:58;98697.28;;;20.48;41.62
74228;BME280;62587;52.352;5.006;2023-03-14T01:10:24;98705.13;;;20.57;41.28
74228;BME280;62587;52.352;5.006;2023-03-14T01:12:49;98703.78;;;20.53;41.51
74228;BME280;62587;52.352;5.006;2023-03-14T01:15:15;98705.63;;;20.53;41.45
74228;BME280;62587;52.352;5.006;2023-03-14T01:17:41;98703.28;;;20.50;41.24
74228;BME280;62587;52.352;5.006;2023-03-14T01:20:09;98707.59;;;20.51;41.27
74228;BME280;62587;52.352;5.006;2023-03-14T01:22:35;98701.63;;;20.49;41.11
74228;BME280;62587;52.352;5.006;2023-03-14T01:25:00;98699.78;;;20.49;41.39
74228;BME280;62587;52.352;5.006;2023-03-14T01:27:26;98690.16;;;20.48;41.48
74228;BME280;62587;52.352;5.006;2023-03-14T01:29:51;98700.47;;;20.51;41.42
74228;BME280;62587;52.352;5.006;2023-03-14T01:32:16;98700.13;;;20.46;41.82
74228;BME280;62587;52.352;5.006;2023-03-14T01:34:42;98697.78;;;20.43;41.61
74228;BME280;62587;52.352;5.006;2023-03-14T01:37:07;98695.94;;;20.44;41.59
74228;BME280;62587;52.352;5.006;2023-03-14T01:39:33;98700.94;;;20.47;41.74
74228;BME280;62587;52.352;5.006;2023-03-14T01:42:00;98694.81;;;20.54;41.40
74228;BME280;62587;52.352;5.006;2023-03-14T01:44:26;98696.34;;;20.65;41.34
74228;BME280;62587;52.352;5.006;2023-03-14T01:46:51;98693.19;;;20.69;41.21
74228;BME280;62587;52.352;5.006;2023-03-14T01:49:33;98701.53;;;20.75;41.23
74228;BME280;62587;52.352;5.006;2023-03-14T01:52:10;98701.34;;;20.68;41.11
74228;BME280;62587;52.352;5.006;2023-03-14T01:55:02;98696.00;;;20.60;41.16
74228;BME280;62587;52.352;5.006;2023-03-14T01:57:37;98691.31;;;20.54;41.63
74228;BME280;62587;52.352;5.006;2023-03-14T02:00:09;98689.50;;;20.46;41.38
74228;BME280;62587;52.352;5.006;2023-03-14T02:03:01;98681.81;;;20.43;41.43
74228;BME280;62587;52.352;5.006;2023-03-14T02:05:32;98675.19;;;20.39;41.69
74228;BME280;62587;52.352;5.006;2023-03-14T02:07:59;98670.84;;;20.38;41.90
74228;BME280;62587;52.352;5.006;2023-03-14T02:10:31;98673.81;;;20.35;41.58
74228;BME280;62587;52.352;5.006;2023-03-14T02:12:59;98671.31;;;20.34;41.89
74228;BME280;62587;52.352;5.006;2023-03-14T02:15:27;98684.78;;;20.32;41.72
74228;BME280;62587;52.352;5.006;2023-03-14T02:17:53;98668.97;;;20.31;41.42
74228;BME280;62587;52.352;5.006;2023-03-14T02:20:34;98667.34;;;20.30;41.48
74228;BME280;62587;52.352;5.006;2023-03-14T02:23:01;98664.69;;;20.30;41.59
74228;BME280;62587;52.352;5.006;2023-03-14T02:25:58;98656.84;;;20.28;41.71
74228;BME280;62587;52.352;5.006;2023-03-14T02:28:26;98663.16;;;20.27;41.95
74228;BME280;62587;52.352;5.006;2023-03-14T02:30:52;98671.28;;;20.26;41.84
74228;BME280;62587;52.352;5.006;2023-03-14T02:33:19;98663.31;;;20.26;41.98
74228;BME280;62587;52.352;5.006;2023-03-14T02:35:47;98665.97;;;20.26;41.75
74228;BME280;62587;52.352;5.006;2023-03-14T02:38:20;98659.69;;;20.27;41.74
74228;BME280;62587;52.352;5.006;2023-03-14T02:40:48;98651.84;;;20.25;41.88
74228;BME280;62587;52.352;5.006;2023-03-14T02:43:13;98649.19;;;20.25;41.67
74228;BME280;62587;52.352;5.006;2023-03-14T02:45:41;98658.00;;;20.26;41.68
74228;BME280;62587;52.352;5.006;2023-03-14T02:48:12;98657.16;;;20.25;41.75
74228;BME280;62587;52.352;5.006;2023-03-14T02:50:39;98653.69;;;20.25;42.07
74228;BME280;62587;52.352;5.006;2023-03-14T02:53:05;98655.50;;;20.24;41.64
74228;BME280;62587;52.352;5.006;2023-03-14T02:55:30;98635.91;;;20.25;41.91
74228;BME280;62587;52.352;5.006;2023-03-14T02:57:56;98633.41;;;20.24;41.53
74228;BME280;62587;52.352;5.006;2023-03-14T03:00:21;98644.03;;;20.24;41.63
74228;BME280;62587;52.352;5.006;2023-03-14T03:02:46;98637.75;;;20.25;42.02
74228;BME280;62587;52.352;5.006;2023-03-14T03:05:12;98637.75;;;20.25;41.88
74228;BME280;62587;52.352;5.006;2023-03-14T03:07:37;98635.91;;;20.25;41.85
74228;BME280;62587;52.352;5.006;2023-03-14T03:10:03;98646.38;;;20.27;41.44
74228;BME280;62587;52.352;5.006;2023-03-14T03:12:28;98634.25;;;20.24;41.99
74228;BME280;62587;52.352;5.006;2023-03-14T03:14:54;98633.25;;;20.25;41.37
74228;BME280;62587;52.352;5.006;2023-03-14T03:17:19;98625.13;;;20.27;41.52
74228;BME280;62587;52.352;5.006;2023-03-14T03:19:44;98618.97;;;20.26;41.54
74228;BME280;62587;52.352;5.006;2023-03-14T03:22:10;98619.81;;;20.27;41.83
74228;BME280;62587;52.352;5.006;2023-03-14T03:24:35;98615.47;;;20.26;41.60
74228;BME280;62587;52.352;5.006;2023-03-14T03:27:01;98627.78;;;20.27;41.63
74228;BME280;62587;52.352;5.006;2023-03-14T03:29:26;98616.31;;;20.26;41.46
74228;BME280;62587;52.352;5.006;2023-03-14T03:31:52;98621.63;;;20.26;41.86
74228;BME280;62587;52.352;5.006;2023-03-14T03:34:18;98615.34;;;20.27;41.42
74228;BME280;62587;52.352;5.006;2023-03-14T03:36:43;98618.13;;;20.26;41.84
74228;BME280;62587;52.352;5.006;2023-03-14T03:39:08;98606.66;;;20.25;41.34
74228;BME280;62587;52.352;5.006;2023-03-14T03:41:34;98618.13;;;20.26;41.51
74228;BME280;62587;52.352;5.006;2023-03-14T03:43:59;98619.97;;;20.25;41.87
74228;BME280;62587;52.352;5.006;2023-03-14T03:46:25;98626.28;;;20.24;41.30
74228;BME280;62587;52.352;5.006;2023-03-14T03:48:58;98621.81;;;20.25;41.32
74228;BME280;62587;52.352;5.006;2023-03-14T03:51:24;98616.50;;;20.25;41.46
74228;BME280;62587;52.352;5.006;2023-03-14T03:53:49;98621.81;;;20.25;41.76
74228;BME280;62587;52.352;5.006;2023-03-14T03:56:15;98613.97;;;20.23;41.56
74228;BME280;62587;52.352;5.006;2023-03-14T03:58:40;98615.84;;;20.23;41.51
74228;BME280;62587;52.352;5.006;2023-03-14T04:01:08;98626.47;;;20.23;41.89
74228;BME280;62587;52.352;5.006;2023-03-14T04:03:34;98622.97;;;20.22;41.57
74228;BME280;62587;52.352;5.006;2023-03-14T04:06:01;98628.94;;;20.24;41.37
74228;BME280;62587;52.352;5.006;2023-03-14T04:08:27;98627.25;;;20.23;41.73
74228;BME280;62587;52.352;5.006;2023-03-14T04:10:57;98625.63;;;20.22;41.74
74228;BME280;62587;52.352;5.006;2023-03-14T04:13:23;98624.75;;;20.22;41.80
74228;BME280;62587;52.352;5.006;2023-03-14T04:15:49;98621.94;;;20.23;41.54
74228;BME280;62587;52.352;5.006;2023-03-14T04:18:14;98629.91;;;20.23;41.55
74228;BME280;62587;52.352;5.006;2023-03-14T04:20:39;98626.56;;;20.21;41.71
74228;BME280;62587;52.352;5.006;2023-03-14T04:23:05;98619.28;;;20.23;41.83
74228;BME280;62587;52.352;5.006;2023-03-14T04:25:30;98627.25;;;20.23;41.83
74228;BME280;62587;52.352;5.006;2023-03-14T04:27:55;98628.28;;;20.22;41.72
74228;BME280;62587;52.352;5.006;2023-03-14T04:30:21;98629.13;;;20.23;41.46
74228;BME280;62587;52.352;5.006;2023-03-14T04:32:47;98630.94;;;20.22;41.38
74228;BME280;62587;52.352;5.006;2023-03-14T04:35:12;98632.56;;;20.23;41.36
74228;BME280;62587;52.352;5.006;2023-03-14T04:37:37;98636.06;;;20.24;41.79
74228;BME280;62587;52.352;5.006;2023-03-14T04:40:03;98634.25;;;20.24;41.87
74228;BME280;62587;52.352;5.006;2023-03-14T04:42:31;98625.44;;;20.24;41.68
74228;BME280;62587;52.352;5.006;2023-03-14T04:44:56;98640.41;;;20.25;41.64
74228;BME280;62587;52.352;5.006;2023-03-14T04:47:22;98632.56;;;20.23;41.59
74228;BME280;62587;52.352;5.006;2023-03-14T04:49:47;98631.78;;;20.23;41.64
74228;BME280;62587;52.352;5.006;2023-03-14T04:52:12;98622.97;;;20.22;41.62
74228;BME280;62587;52.352;5.006;2023-03-14T04:54:38;98622.97;;;20.22;41.50
74228;BME280;62587;52.352;5.006;2023-03-14T04:57:03;98622.09;;;20.22;41.66
74228;BME280;62587;52.352;5.006;2023-03-14T04:59:28;98626.47;;;20.23;41.78
74228;BME280;62587;52.352;5.006;2023-03-14T05:01:54;98623.91;;;20.21;41.60
74228;BME280;62587;52.352;5.006;2023-03-14T05:04:19;98615.84;;;20.23;41.76
74228;BME280;62587;52.352;5.006;2023-03-14T05:06:44;98610.78;;;20.20;41.58
74228;BME280;62587;52.352;5.006;2023-03-14T05:09:10;98612.44;;;20.21;41.56
74228;BME280;62587;52.352;5.006;2023-03-14T05:11:35;98616.78;;;20.22;41.57
74228;BME280;62587;52.352;5.006;2023-03-14T05:14:00;98607.03;;;20.22;41.77
74228;BME280;62587;52.352;5.006;2023-03-14T05:16:26;98604.47;;;20.21;41.76
74228;BME280;62587;52.352;5.006;2023-03-14T05:18:51;98610.78;;;20.20;41.79
74228;BME280;62587;52.352;5.006;2023-03-14T05:21:17;98606.47;;;20.19;41.61
74228;BME280;62587;52.352;5.006;2023-03-14T05:23:42;98607.31;;;20.19;41.98
74228;BME280;62587;52.352;5.006;2023-03-14T05:26:07;98603.81;;;20.19;41.78
74228;BME280;62587;52.352;5.006;2023-03-14T05:28:32;98608.28;;;20.18;41.92
74228;BME280;62587;52.352;5.006;2023-03-14T05:30:58;98608.28;;;20.18;41.89
74228;BME280;62587;52.352;5.006;2023-03-14T05:33:23;98618.91;;;20.18;41.92
74228;BME280;62587;52.352;5.006;2023-03-14T05:35:48;98626.88;;;20.18;41.87
74228;BME280;62587;52.352;5.006;2023-03-14T05:38:14;98620.75;;;20.18;41.85
74228;BME280;62587;52.352;5.006;2023-03-14T05:40:39;98632.38;;;20.17;41.97
74228;BME280;62587;52.352;5.006;2023-03-14T05:43:05;98629.72;;;20.17;41.76
74228;BME280;62587;52.352;5.006;2023-03-14T05:45:33;98640.34;;;20.17;41.63
74228;BME280;62587;52.352;5.006;2023-03-14T05:47:58;98657.97;;;20.18;41.94
74228;BME280;62587;52.352;5.006;2023-03-14T05:50:24;98684.66;;;20.16;41.69
74228;BME280;62587;52.352;5.006;2023-03-14T05:52:49;98686.47;;;20.16;41.88
74228;BME280;62587;52.352;5.006;2023-03-14T05:55:14;98698.78;;;20.17;41.69
74228;BME280;62587;52.352;5.006;2023-03-14T05:57:39;98700.78;;;20.15;42.12
74228;BME280;62587;52.352;5.006;2023-03-14T06:00:05;98707.91;;;20.14;41.98
74228;BME280;62587;52.352;5.006;2023-03-14T06:02:31;98716.72;;;20.15;41.96
74228;BME280;62587;52.352;5.006;2023-03-14T06:04:56;98717.69;;;20.14;41.84
74228;BME280;62587;52.352;5.006;2023-03-14T06:07:22;98722.16;;;20.13;41.98
74228;BME280;62587;52.352;5.006;2023-03-14T06:09:47;98734.47;;;20.14;42.15
74228;BME280;62587;52.352;5.006;2023-03-14T06:12:12;98743.41;;;20.13;41.55
74228;BME280;62587;52.352;5.006;2023-03-14T06:14:37;98745.28;;;20.13;41.72
74228;BME280;62587;52.352;5.006;2023-03-14T06:17:03;98755.91;;;20.13;41.91
74228;BME280;62587;52.352;5.006;2023-03-14T06:19:28;98754.22;;;20.12;41.84
74228;BME280;62587;52.352;5.006;2023-03-14T06:21:53;98766.66;;;20.11;42.01
74228;BME280;62587;52.352;5.006;2023-03-14T06:24:19;98764.84;;;20.12;41.79
74228;BME280;62587;52.352;5.006;2023-03-14T06:26:44;98770.31;;;20.10;41.69
74228;BME280;62587;52.352;5.006;2023-03-14T06:29:10;98782.59;;;20.11;42.16
74228;BME280;62587;52.352;5.006;2023-03-14T06:31:35;98781.78;;;20.11;42.11
74228;BME280;62587;52.352;5.006;2023-03-14T06:34:01;98794.25;;;20.10;41.69
74228;BME280;62587;52.352;5.006;2023-03-14T06:36:26;98807.34;;;20.12;42.13
74228;BME280;62587;52.352;5.006;2023-03-14T06:38:51;98815.16;;;20.13;41.64
74228;BME280;62587;52.352;5.006;2023-03-14T06:41:17;98821.69;;;20.19;41.76
74228;BME280;62587;52.352;5.006;2023-03-14T06:43:43;98834.38;;;20.25;41.47
74228;BME280;62587;52.352;5.006;2023-03-14T06:46:08;98843.53;;;20.30;41.39
74228;BME280;62587;52.352;5.006;2023-03-14T06:48:33;98838.59;;;20.35;41.46
74228;BME280;62587;52.352;5.006;2023-03-14T06:50:59;98850.25;;;20.42;41.24
74228;BME280;62587;52.352;5.006;2023-03-14T06:53:24;98860.41;;;20.47;41.17
74228;BME280;62587;52.352;5.006;2023-03-14T06:55:50;98867.25;;;20.49;41.27
74228;BME280;62587;52.352;5.006;2023-03-14T06:58:15;98880.06;;;20.54;41.43
74228;BME280;62587;52.352;5.006;2023-03-14T07:00:40;98894.06;;;20.56;41.09
74228;BME280;62587;52.352;5.006;2023-03-14T07:03:06;98893.97;;;20.65;41.39
74228;BME280;62587;52.352;5.006;2023-03-14T07:05:31;98898.31;;;20.75;41.16
74228;BME280;62587;52.352;5.006;2023-03-14T07:07:56;98909.84;;;20.83;41.17
74228;BME280;62587;52.352;5.006;2023-03-14T07:10:22;98914.53;;;20.89;41.10
74228;BME280;62587;52.352;5.006;2023-03-14T07:12:47;98917.88;;;20.91;40.94
74228;BME280;62587;52.352;5.006;2023-03-14T07:15:13;98935.34;;;20.94;40.80
74228;BME280;62587;52.352;5.006;2023-03-14T07:17:38;98938.66;;;20.96;40.88
74228;BME280;62587;52.352;5.006;2023-03-14T07:20:04;98955.00;;;21.01;41.16
74228;BME280;62587;52.352;5.006;2023-03-14T07:22:30;98957.22;;;21.05;41.04
74228;BME280;62587;52.352;5.006;2023-03-14T07:24:55;98981.84;;;21.07;40.74
74228;BME280;62587;52.352;5.006;2023-03-14T07:27:21;98995.00;;;21.09;40.66
74228;BME280;62587;52.352;5.006;2023-03-14T07:29:46;99027.59;;;21.11;40.59
74228;BME280;62587;52.352;5.006;2023-03-14T07:32:12;99033.75;;;21.11;40.77
74228;BME280;62587;52.352;5.006;2023-03-14T07:34:40;99052.22;;;21.13;40.81
74228;BME280;62587;52.352;5.006;2023-03-14T07:37:06;99065.22;;;21.16;40.63
74228;BME280;62587;52.352;5.006;2023-03-14T07:39:31;99077.69;;;21.15;40.44
74228;BME280;62587;52.352;5.006;2023-03-14T07:41:56;99094.50;;;21.16;40.57
74228;BME280;62587;52.352;5.006;2023-03-14T07:44:22;99110.59;;;21.14;40.56
74228;BME280;62587;52.352;5.006;2023-03-14T07:46:47;99115.94;;;21.14;40.71
74228;BME280;62587;52.352;5.006;2023-03-14T07:49:12;99128.25;;;21.15;40.89
74228;BME280;62587;52.352;5.006;2023-03-14T07:51:38;99128.09;;;21.17;40.73
74228;BME280;62587;52.352;5.006;2023-03-14T07:54:03;99137.47;;;21.21;40.34
74228;BME280;62587;52.352;5.006;2023-03-14T07:56:29;99151.44;;;21.23;41.13
74228;BME280;62587;52.352;5.006;2023-03-14T07:58:54;99156.59;;;21.24;40.82
74228;BME280;62587;52.352;5.006;2023-03-14T08:01:19;99160.09;;;21.25;41.18
74228;BME280;62587;52.352;5.006;2023-03-14T08:03:44;99178.28;;;21.29;41.10
74228;BME280;62587;52.352;5.006;2023-03-14T08:06:10;99184.44;;;21.30;41.42
74228;BME280;62587;52.352;5.006;2023-03-14T08:08:35;99198.72;;;21.29;41.76
74228;BME280;62587;52.352;5.006;2023-03-14T08:11:05;99212.03;;;21.29;42.07
74228;BME280;62587;52.352;5.006;2023-03-14T08:13:31;99227.34;;;21.27;42.15
74228;BME280;62587;52.352;5.006;2023-03-14T08:15:56;99227.34;;;21.27;41.77
74228;BME280;62587;52.352;5.006;2023-03-14T08:18:21;99248.78;;;21.25;41.76
74228;BME280;62587;52.352;5.006;2023-03-14T08:20:47;99255.94;;;21.25;41.63
74228;BME280;62587;52.352;5.006;2023-03-14T08:23:12;99260.41;;;21.24;41.57
74228;BME280;62587;52.352;5.006;2023-03-14T08:25:38;99262.56;;;21.21;41.87
74228;BME280;62587;52.352;5.006;2023-03-14T08:28:04;99280.34;;;21.20;41.59
74228;BME280;62587;52.352;5.006;2023-03-14T08:30:29;99281.31;;;21.19;41.75
74228;BME280;62587;52.352;5.006;2023-03-14T08:32:58;99297.16;;;21.21;41.80
74228;BME280;62587;52.352;5.006;2023-03-14T08:35:24;99311.44;;;21.20;41.59
74228;BME280;62587;52.352;5.006;2023-03-14T08:37:50;99316.94;;;21.18;41.55
74228;BME280;62587;52.352;5.006;2023-03-14T08:40:17;99332.06;;;21.18;41.73
74228;BME280;62587;52.352;5.006;2023-03-14T08:42:43;99340.50;;;21.13;41.72
74228;BME280;62587;52.352;5.006;2023-03-14T08:45:11;99356.47;;;21.13;41.47
74228;BME280;62587;52.352;5.006;2023-03-14T08:47:37;99360.38;;;21.09;41.69
74228;BME280;62587;52.352;5.006;2023-03-14T08:50:03;99368.25;;;21.11;41.63
74228;BME280;62587;52.352;5.006;2023-03-14T08:52:30;99386.19;;;21.09;41.55
74228;BME280;62587;52.352;5.006;2023-03-14T08:54:56;99388.97;;;21.07;41.45
74228;BME280;62587;52.352;5.006;2023-03-14T08:57:21;99413.09;;;21.06;41.58
74228;BME280;62587;52.352;5.006;2023-03-14T08:59:47;99406.06;;;21.05;41.29
74228;BME280;62587;52.352;5.006;2023-03-14T09:02:12;99420.78;;;20.99;41.38
74228;BME280;62587;52.352;5.006;2023-03-14T09:04:38;99425.97;;;21.01;41.60
74228;BME280;62587;52.352;5.006;2023-03-14T09:07:04;99433.25;;;20.99;41.54
74228;BME280;62587;52.352;5.006;2023-03-14T09:09:29;99453.69;;;20.98;41.40
74228;BME280;62587;52.352;5.006;2023-03-14T09:11:56;99453.00;;;20.96;41.47
74228;BME280;62587;52.352;5.006;2023-03-14T09:14:21;99460.16;;;20.96;41.25
74228;BME280;62587;52.352;5.006;2023-03-14T09:16:46;99461.44;;;20.92;41.49
74228;BME280;62587;52.352;5.006;2023-03-14T09:19:12;99467.44;;;20.94;41.41
74228;BME280;62587;52.352;5.006;2023-03-14T09:21:37;99474.72;;;20.92;41.21
74228;BME280;62587;52.352;5.006;2023-03-14T09:24:04;99489.00;;;20.91;41.14
74228;BME280;62587;52.352;5.006;2023-03-14T09:26:30;99502.19;;;20.92;41.19
74228;BME280;62587;52.352;5.006;2023-03-14T09:28:55;99517.44;;;20.90;41.36
74228;BME280;62587;52.352;5.006;2023-03-14T09:31:20;99514.06;;;20.88;41.22
74228;BME280;62587;52.352;5.006;2023-03-14T09:33:47;99525.56;;;20.89;41.15
74228;BME280;62587;52.352;5.006;2023-03-14T09:36:13;99548.38;;;20.91;41.13
74228;BME280;62587;52.352;5.006;2023-03-14T09:38:38;99558.47;;;20.88;41.17
74228;BME280;62587;52.352;5.006;2023-03-14T09:41:22;99563.50;;;20.91;40.86
74228;BME280;62587;52.352;5.006;2023-03-14T09:43:49;99574.16;;;20.91;41.05
74228;BME280;62587;52.352;5.006;2023-03-14T09:46:20;99590.97;;;20.91;40.90
74228;BME280;62587;52.352;5.006;2023-03-14T09:48:46;99598.78;;;20.93;40.90
74228;BME280;62587;52.352;5.006;2023-03-14T09:51:17;99613.09;;;20.92;40.76
74228;BME280;62587;52.352;5.006;2023-03-14T09:53:45;99610.28;;;20.93;40.60
74228;BME280;62587;52.352;5.006;2023-03-14T09:56:31;99618.25;;;20.93;40.57
74228;BME280;62587;52.352;5.006;2023-03-14T09:59:03;99620.50;;;20.88;40.60
74228;BME280;62587;52.352;5.006;2023-03-14T10:01:32;99627.50;;;20.89;40.57
74228;BME280;62587;52.352;5.006;2023-03-14T10:04:05;99634.91;;;20.86;40.46
74228;BME280;62587;52.352;5.006;2023-03-14T10:06:32;99642.06;;;20.85;40.34
74228;BME280;62587;52.352;5.006;2023-03-14T10:08:57;99652.00;;;20.83;40.75
74228;BME280;62587;52.352;5.006;2023-03-14T10:11:23;99665.59;;;20.80;40.71
74228;BME280;62587;52.352;5.006;2023-03-14T10:14:09;99672.59;;;20.81;40.33
74228;BME280;62587;52.352;5.006;2023-03-14T10:16:42;99694.88;;;20.80;40.40
74228;BME280;62587;52.352;5.006;2023-03-14T10:19:17;99703.25;;;20.76;40.55
74228;BME280;62587;52.352;5.006;2023-03-14T10:21:44;99714.72;;;20.76;40.54
74228;BME280;62587;52.352;5.006;2023-03-14T10:24:22;99720.03;;;20.76;40.51
74228;BME280;62587;52.352;5.006;2023-03-14T10:26:59;99723.00;;;20.73;40.32
74228;BME280;62587;52.352;5.006;2023-03-14T10:29:33;99722.59;;;20.78;40.19
74228;BME280;62587;52.352;5.006;2023-03-14T10:31:59;99736.16;;;20.75;40.46
74228;BME280;62587;52.352;5.006;2023-03-14T10:34:33;99742.44;;;20.73;40.27
74228;BME280;62587;52.352;5.006;2023-03-14T10:37:06;99750.72;;;20.70;40.17
74228;BME280;62587;52.352;5.006;2023-03-14T10:39:48;99767.22;;;20.74;40.15
74228;BME280;62587;52.352;5.006;2023-03-14T10:42:30;99775.91;;;20.76;40.02
74228;BME280;62587;52.352;5.006;2023-03-14T10:45:05;99788.34;;;20.76;40.23
74228;BME280;62587;52.352;5.006;2023-03-14T10:47:33;99792.56;;;20.78;40.09
74228;BME280;62587;52.352;5.006;2023-03-14T10:50:26;99816.25;;;20.81;39.96
74228;BME280;62587;52.352;5.006;2023-03-14T10:52:53;99825.78;;;20.84;39.88
74228;BME280;62587;52.352;5.006;2023-03-14T10:55:18;99836.69;;;20.81;40.06
74228;BME280;62587;52.352;5.006;2023-03-14T10:57:44;99838.53;;;20.80;39.67
74228;BME280;62587;52.352;5.006;2023-03-14T11:00:21;99848.34;;;20.89;39.61
74228;BME280;62587;52.352;5.006;2023-03-14T11:05:31;99862.91;;;20.95;39.31
74228;BME280;62587;52.352;5.006;2023-03-14T11:08:10;99872.44;;;20.97;38.94
74228;BME280;62587;52.352;5.006;2023-03-14T11:10:39;99887.19;;;21.01;38.99
74228;BME280;62587;52.352;5.006;2023-03-14T11:15:48;99898.53;;;21.03;38.98
74228;BME280;62587;52.352;5.006;2023-03-14T11:26:24;99937.81;;;21.11;38.55
74228;BME280;62587;52.352;5.006;2023-03-14T11:28:58;99954.75;;;21.10;38.92
74228;BME280;62587;52.352;5.006;2023-03-14T11:31:29;99959.66;;;21.14;38.65
74228;BME280;62587;52.352;5.006;2023-03-14T11:36:36;99971.75;;;21.18;38.73
74228;BME280;62587;52.352;5.006;2023-03-14T11:39:08;99986.47;;;21.22;38.36
74228;BME280;62587;52.352;5.006;2023-03-14T11:41:42;99994.19;;;21.25;38.22
74228;BME280;62587;52.352;5.006;2023-03-14T11:44:30;99992.22;;;21.27;38.25
74228;BME280;62587;52.352;5.006;2023-03-14T11:49:59;100016.06;;;21.29;38.28
74228;BME280;62587;52.352;5.006;2023-03-14T11:52:32;100010.47;;;21.32;37.97
74228;BME280;62587;52.352;5.006;2023-03-14T11:55:10;100026.59;;;21.30;38.08
74228;BME280;62587;52.352;5.006;2023-03-14T11:57:39;100038.91;;;21.31;38.21
74228;BME280;62587;52.352;5.006;2023-03-14T12:00:23;100038.06;;;21.31;37.99
74228;BME280;62587;52.352;5.006;2023-03-14T12:03:09;100043.28;;;21.32;37.96
74228;BME280;62587;52.352;5.006;2023-03-14T12:05:58;100046.91;;;21.31;37.86
74228;BME280;62587;52.352;5.006;2023-03-14T12:08:37;100062.75;;;21.33;37.31
74228;BME280;62587;52.352;5.006;2023-03-14T12:13:46;100066.38;;;21.32;37.71
74228;BME280;62587;52.352;5.006;2023-03-14T12:16:36;100081.50;;;21.31;37.71
74228;BME280;62587;52.352;5.006;2023-03-14T12:21:53;100089.38;;;21.33;37.43
74228;BME280;62587;52.352;5.006;2023-03-14T12:24:23;100098.06;;;21.35;37.51
74228;BME280;62587;52.352;5.006;2023-03-14T12:26:55;100101.56;;;21.35;37.52
74228;BME280;62587;52.352;5.006;2023-03-14T12:29:21;100106.78;;;21.37;37.29
74228;BME280;62587;52.352;5.006;2023-03-14T12:31:48;100110.53;;;21.34;37.36
74228;BME280;62587;52.352;5.006;2023-03-14T12:39:47;100126.78;;;21.31;37.22
74228;BME280;62587;52.352;5.006;2023-03-14T12:45:25;100139.97;;;21.33;37.04
74228;BME280;62587;52.352;5.006;2023-03-14T12:48:29;100139.97;;;21.33;36.92
74228;BME280;62587;52.352;5.006;2023-03-14T12:51:03;100141.91;;;21.31;37.00
74228;BME280;62587;52.352;5.006;2023-03-14T13:01:32;100161.88;;;21.16;37.33
74228;BME280;62587;52.352;5.006;2023-03-14T13:04:10;100167.91;;;21.18;37.03
74228;BME280;62587;52.352;5.006;2023-03-14T13:09:50;100179.34;;;21.09;37.11
74228;BME280;62587;52.352;5.006;2023-03-14T13:12:18;100188.03;;;21.11;36.93
74228;BME280;62587;52.352;5.006;2023-03-14T13:14:45;100194.91;;;21.02;37.18
74228;BME280;62587;52.352;5.006;2023-03-14T13:17:13;100203.41;;;21.07;36.91
74228;BME280;62587;52.352;5.006;2023-03-14T13:19:39;100207.63;;;21.10;36.79
74228;BME280;62587;52.352;5.006;2023-03-14T13:22:12;100211.97;;;21.11;36.70
74228;BME280;62587;52.352;5.006;2023-03-14T13:24:40;100230.63;;;21.11;36.52
74228;BME280;62587;52.352;5.006;2023-03-14T13:27:18;100234.25;;;21.10;36.66
74228;BME280;62587;52.352;5.006;2023-03-14T13:29:50;100234.47;;;21.07;36.93
74228;BME280;62587;52.352;5.006;2023-03-14T13:32:28;100236.78;;;21.00;36.72
74228;BME280;62587;52.352;5.006;2023-03-14T13:34:57;100246.72;;;20.98;37.03
74228;BME280;62587;52.352;5.006;2023-03-14T13:37:25;100245.28;;;20.94;37.03
74228;BME280;62587;52.352;5.006;2023-03-14T13:39:52;100254.69;;;20.98;36.72
74228;BME280;62587;52.352;5.006;2023-03-14T13:42:21;100275.28;;;20.96;36.82
74228;BME280;62587;52.352;5.006;2023-03-14T13:44:51;100276.38;;;20.94;36.95
74228;BME280;62587;52.352;5.006;2023-03-14T13:47:19;100280.00;;;20.93;36.99
74228;BME280;62587;52.352;5.006;2023-03-14T13:49:45;100292.09;;;20.97;36.48